sensor_id;sensor_type;location;lat;lon;timestamp;pressure;altitude;pressure_sealevel;temperature;humidity
81151;BME280;70629;-26.026;27.976;2024-01-15T00:00:47;86301.19;;;22.50;70.61
81151;BME280;70629;-26.026;27.976;2024-01-15T00:01:27;86303.94;;;22.50;70.79
81151;BME280;70629;-26.026;27.976;2024-01-15T00:02:07;86305.97;;;22.45;70.69
81151;BME280;70629;-26.026;27.976;2024-01-15T00:02:47;86308.59;;;22.25;70.98
81151;BME280;70629;-26.026;27.976;2024-01-15T00:03:28;86302.44;;;22.24;71.31
81151;BME280;70629;-26.026;27.976;2024-01-15T00:04:07;86305.84;;;22.21;71.67
81151;BME280;70629;-26.026;27.976;2024-01-15T00:04:47;86301.00;;;22.11;72.30
81151;BME280;70629;-26.026;27.976;2024-01-15T00:05:27;86301.66;;;22.08;72.43
81151;BME280;70629;-26.026;27.976;2024-01-15T00:06:07;86299.56;;;22.00;72.67
81151;BME280;70629;-26.026;27.976;2024-01-15T00:06:47;86294.84;;;22.15;72.02
81151;BME280;70629;-26.026;27.976;2024-01-15T00:07:27;86296.97;;;22.30;71.38
81151;BME280;70629;-26.026;27.976;2024-01-15T00:08:07;86293.56;;;22.34;71.12
81151;BME280;70629;-26.026;27.976;2024-01-15T00:08:47;86297.75;;;22.45;70.56
81151;BME280;70629;-26.026;27.976;2024-01-15T00:09:27;86292.97;;;22.52;70.80
81151;BME280;70629;-26.026;27.976;2024-01-15T00:10:07;86299.13;;;22.48;70.60
81151;BME280;70629;-26.026;27.976;2024-01-15T00:10:47;86302.47;;;22.37;70.93
81151;BME280;70629;-26.026;27.976;2024-01-15T00:11:26;86295.69;;;22.52;70.85
81151;BME280;70629;-26.026;27.976;2024-01-15T00:12:07;86295.72;;;22.56;70.37
81151;BME280;70629;-26.026;27.976;2024-01-15T00:12:46;86296.34;;;22.46;70.62
81151;BME280;70629;-26.026;27.976;2024-01-15T00:13:27;86294.34;;;22.53;70.22
81151;BME280;70629;-26.026;27.976;2024-01-15T00:14:08;86290.91;;;22.50;70.54
81151;BME280;70629;-26.026;27.976;2024-01-15T00:14:48;86296.34;;;22.42;70.73
81151;BME280;70629;-26.026;27.976;2024-01-15T00:15:27;86296.97;;;22.32;70.90
81151;BME280;70629;-26.026;27.976;2024-01-15T00:16:07;86291.47;;;22.24;71.45
81151;BME280;70629;-26.026;27.976;2024-01-15T00:16:47;86290.78;;;22.24;71.43
81151;BME280;70629;-26.026;27.976;2024-01-15T00:17:29;86297.66;;;22.29;71.40
81151;BME280;70629;-26.026;27.976;2024-01-15T00:18:09;86294.91;;;22.29;71.43
81151;BME280;70629;-26.026;27.976;2024-01-15T00:18:49;86302.44;;;22.24;71.71
81151;BME280;70629;-26.026;27.976;2024-01-15T00:19:29;86298.34;;;22.29;71.35
81151;BME280;70629;-26.026;27.976;2024-01-15T00:20:12;86287.38;;;22.27;71.30
81151;BME280;70629;-26.026;27.976;2024-01-15T00:20:52;86301.69;;;22.18;71.73
81151;BME280;70629;-26.026;27.976;2024-01-15T00:21:31;86293.47;;;22.12;71.38
81151;BME280;70629;-26.026;27.976;2024-01-15T00:22:11;86302.34;;;22.06;71.31
81151;BME280;70629;-26.026;27.976;2024-01-15T00:22:51;86293.34;;;21.96;71.47
81151;BME280;70629;-26.026;27.976;2024-01-15T00:23:31;86300.25;;;21.99;71.70
81151;BME280;70629;-26.026;27.976;2024-01-15T00:24:11;86293.44;;;22.08;71.04
81151;BME280;70629;-26.026;27.976;2024-01-15T00:24:52;86297.56;;;22.11;70.88
81151;BME280;70629;-26.026;27.976;2024-01-15T00:25:31;86293.56;;;22.30;70.10
81151;BME280;70629;-26.026;27.976;2024-01-15T00:26:11;86292.19;;;22.33;70.24
81151;BME280;70629;-26.026;27.976;2024-01-15T00:26:51;86294.09;;;22.08;70.97
81151;BME280;70629;-26.026;27.976;2024-01-15T00:27:32;86294.78;;;22.03;71.57
81151;BME280;70629;-26.026;27.976;2024-01-15T00:28:12;86292.81;;;22.17;71.37
81151;BME280;70629;-26.026;27.976;2024-01-15T00:28:52;86294.94;;;22.33;70.96
81151;BME280;70629;-26.026;27.976;2024-01-15T00:29:32;86295.63;;;22.33;70.68
81151;BME280;70629;-26.026;27.976;2024-01-15T00:30:12;86292.81;;;22.19;71.31
81151;BME280;70629;-26.026;27.976;2024-01-15T00:30:52;86298.97;;;22.16;71.22
81151;BME280;70629;-26.026;27.976;2024-01-15T00:31:32;86295.50;;;22.07;71.99
81151;BME280;70629;-26.026;27.976;2024-01-15T00:32:12;86297.53;;;22.05;71.79
81151;BME280;70629;-26.026;27.976;2024-01-15T00:32:52;86294.13;;;22.06;71.97
81151;BME280;70629;-26.026;27.976;2024-01-15T00:33:32;86298.34;;;22.29;71.17
81151;BME280;70629;-26.026;27.976;2024-01-15T00:34:12;86300.41;;;22.29;70.98
81151;BME280;70629;-26.026;27.976;2024-01-15T00:34:52;86294.88;;;22.21;71.22
81151;BME280;70629;-26.026;27.976;2024-01-15T00:35:32;86301.75;;;22.28;70.70
81151;BME280;70629;-26.026;27.976;2024-01-15T00:36:12;86299.63;;;22.14;71.45
81151;BME280;70629;-26.026;27.976;2024-01-15T00:36:54;86292.81;;;22.23;71.39
81151;BME280;70629;-26.026;27.976;2024-01-15T00:37:33;86298.97;;;22.16;71.57
81151;BME280;70629;-26.026;27.976;2024-01-15T00:38:13;86290.72;;;22.14;71.54
81151;BME280;70629;-26.026;27.976;2024-01-15T00:38:53;86290.69;;;22.10;71.55
81151;BME280;70629;-26.026;27.976;2024-01-15T00:39:33;86290.78;;;22.22;71.32
81151;BME280;70629;-26.026;27.976;2024-01-15T00:40:13;86289.44;;;22.29;71.16
81151;BME280;70629;-26.026;27.976;2024-01-15T00:40:54;86289.41;;;22.25;71.07
81151;BME280;70629;-26.026;27.976;2024-01-15T00:41:33;86288.00;;;22.16;71.53
81151;BME280;70629;-26.026;27.976;2024-01-15T00:42:13;86290.78;;;22.22;71.14
81151;BME280;70629;-26.026;27.976;2024-01-15T00:42:53;86290.06;;;22.17;70.96
81151;BME280;70629;-26.026;27.976;2024-01-15T00:43:33;86281.88;;;22.27;70.50
81151;BME280;70629;-26.026;27.976;2024-01-15T00:44:14;86286.59;;;22.09;71.29
81151;BME280;70629;-26.026;27.976;2024-01-15T00:44:53;86290.66;;;22.00;71.57
81151;BME280;70629;-26.026;27.976;2024-01-15T00:45:33;86289.97;;;22.01;72.86
81151;BME280;70629;-26.026;27.976;2024-01-15T00:46:14;86287.00;;;21.71;72.52
81151;BME280;70629;-26.026;27.976;2024-01-15T00:46:53;86292.66;;;21.95;72.42
81151;BME280;70629;-26.026;27.976;2024-01-15T00:47:33;86293.47;;;22.16;71.41
81151;BME280;70629;-26.026;27.976;2024-01-15T00:48:14;86290.69;;;22.10;71.50
81151;BME280;70629;-26.026;27.976;2024-01-15T00:48:54;86290.78;;;22.22;71.34
81151;BME280;70629;-26.026;27.976;2024-01-15T00:49:34;86286.75;;;22.41;70.67
81151;BME280;70629;-26.026;27.976;2024-01-15T00:50:14;86285.31;;;22.22;70.95
81151;BME280;70629;-26.026;27.976;2024-01-15T00:50:54;86291.34;;;22.04;71.20
81151;BME280;70629;-26.026;27.976;2024-01-15T00:51:35;86288.63;;;22.08;71.19
81151;BME280;70629;-26.026;27.976;2024-01-15T00:52:15;86286.59;;;22.09;71.36
81151;BME280;70629;-26.026;27.976;2024-01-15T00:52:55;86288.03;;;22.24;70.53
81151;BME280;70629;-26.026;27.976;2024-01-15T00:53:34;86282.63;;;22.42;70.20
81151;BME280;70629;-26.026;27.976;2024-01-15T00:54:14;86284.72;;;22.46;70.01
81151;BME280;70629;-26.026;27.976;2024-01-15T00:54:54;86288.81;;;22.41;69.59
81151;BME280;70629;-26.026;27.976;2024-01-15T00:55:34;86288.09;;;22.34;69.51
81151;BME280;70629;-26.026;27.976;2024-01-15T00:56:15;86288.00;;;22.18;69.93
81151;BME280;70629;-26.026;27.976;2024-01-15T00:56:55;86292.13;;;22.23;70.32
81151;BME280;70629;-26.026;27.976;2024-01-15T00:57:35;86287.41;;;22.33;69.62
81151;BME280;70629;-26.026;27.976;2024-01-15T00:58:15;86284.66;;;22.33;69.69
81151;BME280;70629;-26.026;27.976;2024-01-15T00:58:55;86290.09;;;22.25;69.91
81151;BME280;70629;-26.026;27.976;2024-01-15T00:59:35;86287.94;;;22.04;70.44
81151;BME280;70629;-26.026;27.976;2024-01-15T01:00:15;86289.19;;;21.84;71.07
81151;BME280;70629;-26.026;27.976;2024-01-15T01:00:55;86294.63;;;21.82;71.42
81151;BME280;70629;-26.026;27.976;2024-01-15T01:01:35;86298.88;;;21.98;71.24
81151;BME280;70629;-26.026;27.976;2024-01-15T01:02:15;86296.59;;;21.72;71.50
81151;BME280;70629;-26.026;27.976;2024-01-15T01:02:55;86293.94;;;21.82;71.80
81151;BME280;70629;-26.026;27.976;2024-01-15T01:03:35;86293.28;;;21.83;71.68
81151;BME280;70629;-26.026;27.976;2024-01-15T01:04:15;86291.25;;;21.90;71.38
81151;BME280;70629;-26.026;27.976;2024-01-15T01:04:55;86291.19;;;21.80;71.38
81151;BME280;70629;-26.026;27.976;2024-01-15T01:05:35;86287.03;;;21.73;72.04
81151;BME280;70629;-26.026;27.976;2024-01-15T01:06:15;86293.38;;;21.94;71.43
81151;BME280;70629;-26.026;27.976;2024-01-15T01:06:54;86292.56;;;21.83;71.50
81151;BME280;70629;-26.026;27.976;2024-01-15T01:07:35;86289.88;;;21.87;71.43
81151;BME280;70629;-26.026;27.976;2024-01-15T01:08:15;86290.56;;;21.89;71.28
81151;BME280;70629;-26.026;27.976;2024-01-15T01:08:55;86285.22;;;22.08;70.68
81151;BME280;70629;-26.026;27.976;2024-01-15T01:09:34;86290.72;;;22.08;70.42
81151;BME280;70629;-26.026;27.976;2024-01-15T01:10:14;86292.09;;;22.11;70.65
81151;BME280;70629;-26.026;27.976;2024-01-15T01:10:56;86287.34;;;22.17;70.10
81151;BME280;70629;-26.026;27.976;2024-01-15T01:11:36;86287.97;;;22.08;70.13
81151;BME280;70629;-26.026;27.976;2024-01-15T01:12:15;86294.69;;;21.93;70.89
81151;BME280;70629;-26.026;27.976;2024-01-15T01:12:56;86296.75;;;21.92;71.16
81151;BME280;70629;-26.026;27.976;2024-01-15T01:13:36;86288.66;;;22.10;70.86
81151;BME280;70629;-26.026;27.976;2024-01-15T01:14:15;86293.50;;;22.24;70.34
81151;BME280;70629;-26.026;27.976;2024-01-15T01:14:56;86294.66;;;21.84;70.64
81151;BME280;70629;-26.026;27.976;2024-01-15T01:15:36;86296.66;;;21.78;71.52
81151;BME280;70629;-26.026;27.976;2024-01-15T01:16:16;86289.75;;;21.71;71.49
81151;BME280;70629;-26.026;27.976;2024-01-15T01:16:56;86287.09;;;21.79;71.55
81151;BME280;70629;-26.026;27.976;2024-01-15T01:17:36;86293.19;;;21.71;71.50
81151;BME280;70629;-26.026;27.976;2024-01-15T01:18:16;86295.84;;;21.61;71.73
81151;BME280;70629;-26.026;27.976;2024-01-15T01:18:56;86289.06;;;21.72;71.80
81151;BME280;70629;-26.026;27.976;2024-01-15T01:19:36;86290.63;;;21.94;71.07
81151;BME280;70629;-26.026;27.976;2024-01-15T01:20:16;86287.72;;;21.73;71.15
81151;BME280;70629;-26.026;27.976;2024-01-15T01:20:57;86294.56;;;21.72;71.29
81151;BME280;70629;-26.026;27.976;2024-01-15T01:21:37;86290.44;;;21.69;71.60
81151;BME280;70629;-26.026;27.976;2024-01-15T01:22:16;86293.25;;;21.81;71.40
81151;BME280;70629;-26.026;27.976;2024-01-15T01:22:56;86287.06;;;21.81;71.49
81151;BME280;70629;-26.026;27.976;2024-01-15T01:23:37;86291.88;;;21.78;71.53
81151;BME280;70629;-26.026;27.976;2024-01-15T01:24:16;86285.06;;;21.85;71.32
81151;BME280;70629;-26.026;27.976;2024-01-15T01:24:56;86285.78;;;21.88;71.00
81151;BME280;70629;-26.026;27.976;2024-01-15T01:25:36;86289.19;;;21.84;71.76
81151;BME280;70629;-26.026;27.976;2024-01-15T01:26:17;86293.25;;;21.79;71.59
81151;BME280;70629;-26.026;27.976;2024-01-15T01:26:57;86284.97;;;21.69;71.48
81151;BME280;70629;-26.026;27.976;2024-01-15T01:27:37;86274.63;;;21.62;72.02
81151;BME280;70629;-26.026;27.976;2024-01-15T01:28:16;86279.50;;;21.73;71.63
81151;BME280;70629;-26.026;27.976;2024-01-15T01:28:57;86284.34;;;21.79;71.84
81151;BME280;70629;-26.026;27.976;2024-01-15T01:29:36;86278.34;;;21.99;70.96
81151;BME280;70629;-26.026;27.976;2024-01-15T01:30:16;86286.38;;;21.74;71.72
81151;BME280;70629;-26.026;27.976;2024-01-15T01:30:56;86284.28;;;21.73;71.68
81151;BME280;70629;-26.026;27.976;2024-01-15T01:31:36;86278.16;;;21.76;71.61
81151;BME280;70629;-26.026;27.976;2024-01-15T01:32:16;86284.97;;;21.73;71.72
81151;BME280;70629;-26.026;27.976;2024-01-15T01:32:56;86284.94;;;21.67;71.83
81151;BME280;70629;-26.026;27.976;2024-01-15T01:33:38;86282.03;;;21.43;72.69
81151;BME280;70629;-26.026;27.976;2024-01-15T01:34:20;86282.13;;;21.55;72.79
81151;BME280;70629;-26.026;27.976;2024-01-15T01:35:00;86277.34;;;21.56;72.62
81151;BME280;70629;-26.026;27.976;2024-01-15T01:35:40;86282.22;;;21.69;71.96
81151;BME280;70629;-26.026;27.976;2024-01-15T01:36:20;86277.34;;;21.58;72.34
81151;BME280;70629;-26.026;27.976;2024-01-15T01:37:00;86286.81;;;21.44;72.70
81151;BME280;70629;-26.026;27.976;2024-01-15T01:37:40;86274.56;;;21.50;72.73
81151;BME280;70629;-26.026;27.976;2024-01-15T01:38:19;86275.31;;;21.60;72.48
81151;BME280;70629;-26.026;27.976;2024-01-15T01:38:59;86276.13;;;21.79;71.80
81151;BME280;70629;-26.026;27.976;2024-01-15T01:39:42;86274.00;;;21.65;71.95
81151;BME280;70629;-26.026;27.976;2024-01-15T01:40:22;86286.19;;;21.52;72.58
81151;BME280;70629;-26.026;27.976;2024-01-15T01:41:02;86278.69;;;21.57;72.49
81151;BME280;70629;-26.026;27.976;2024-01-15T01:41:42;86282.72;;;21.48;72.44
81151;BME280;70629;-26.026;27.976;2024-01-15T01:42:22;86285.47;;;21.45;72.73
81151;BME280;70629;-26.026;27.976;2024-01-15T01:43:04;86284.59;;;21.21;73.70
81151;BME280;70629;-26.026;27.976;2024-01-15T01:43:44;86292.16;;;21.26;73.64
81151;BME280;70629;-26.026;27.976;2024-01-15T01:44:23;86283.34;;;21.38;73.09
81151;BME280;70629;-26.026;27.976;2024-01-15T01:45:04;86286.19;;;21.50;72.54
81151;BME280;70629;-26.026;27.976;2024-01-15T01:45:44;86286.38;;;21.78;71.66
81151;BME280;70629;-26.026;27.976;2024-01-15T01:46:24;86290.44;;;21.69;71.47
81151;BME280;70629;-26.026;27.976;2024-01-15T01:47:05;86290.47;;;21.75;71.87
81151;BME280;70629;-26.026;27.976;2024-01-15T01:47:45;86289.03;;;21.66;71.48
81151;BME280;70629;-26.026;27.976;2024-01-15T01:48:26;86284.97;;;21.69;72.05
81151;BME280;70629;-26.026;27.976;2024-01-15T01:49:08;86287.59;;;21.55;71.85
81151;BME280;70629;-26.026;27.976;2024-01-15T01:49:48;86276.75;;;21.71;71.46
81151;BME280;70629;-26.026;27.976;2024-01-15T01:50:30;86289.03;;;21.66;71.69
81151;BME280;70629;-26.026;27.976;2024-01-15T01:51:11;86276.69;;;21.61;71.99
81151;BME280;70629;-26.026;27.976;2024-01-15T01:51:52;86282.19;;;21.63;71.73
81151;BME280;70629;-26.026;27.976;2024-01-15T01:52:33;86282.81;;;21.56;72.11
81151;BME280;70629;-26.026;27.976;2024-01-15T01:53:14;86280.19;;;21.70;71.44
81151;BME280;70629;-26.026;27.976;2024-01-15T01:53:54;86288.50;;;21.88;70.99
81151;BME280;70629;-26.026;27.976;2024-01-15T01:54:35;86285.19;;;22.02;70.30
81151;BME280;70629;-26.026;27.976;2024-01-15T01:55:16;86283.72;;;21.90;70.63
81151;BME280;70629;-26.026;27.976;2024-01-15T01:55:58;86288.59;;;22.00;70.03
81151;BME280;70629;-26.026;27.976;2024-01-15T01:56:38;86280.44;;;22.10;70.27
81151;BME280;70629;-26.026;27.976;2024-01-15T01:57:18;86280.28;;;21.86;70.51
81151;BME280;70629;-26.026;27.976;2024-01-15T01:57:59;86282.44;;;21.98;70.55
81151;BME280;70629;-26.026;27.976;2024-01-15T01:58:40;86283.13;;;22.04;69.85
81151;BME280;70629;-26.026;27.976;2024-01-15T01:59:20;86278.22;;;21.86;70.21
81151;BME280;70629;-26.026;27.976;2024-01-15T02:00:03;86279.50;;;21.75;70.94
81151;BME280;70629;-26.026;27.976;2024-01-15T02:00:49;86277.44;;;21.72;71.01
81151;BME280;70629;-26.026;27.976;2024-01-15T02:01:31;86276.78;;;21.77;70.82
81151;BME280;70629;-26.026;27.976;2024-01-15T02:02:11;86282.19;;;21.63;70.54
81151;BME280;70629;-26.026;27.976;2024-01-15T02:02:51;86269.84;;;21.62;70.85
81151;BME280;70629;-26.026;27.976;2024-01-15T02:03:31;86276.69;;;21.61;71.40
81151;BME280;70629;-26.026;27.976;2024-01-15T02:04:12;86276.63;;;21.51;71.44
81151;BME280;70629;-26.026;27.976;2024-01-15T02:04:55;86277.97;;;21.52;71.77
81151;BME280;70629;-26.026;27.976;2024-01-15T02:05:35;86284.88;;;21.61;71.73
81151;BME280;70629;-26.026;27.976;2024-01-15T02:06:15;86287.56;;;21.51;71.54
81151;BME280;70629;-26.026;27.976;2024-01-15T02:06:56;86282.72;;;21.43;72.18
81151;BME280;70629;-26.026;27.976;2024-01-15T02:07:36;86286.09;;;21.38;72.24
81151;BME280;70629;-26.026;27.976;2024-01-15T02:08:15;86290.22;;;21.43;72.47
81151;BME280;70629;-26.026;27.976;2024-01-15T02:08:56;86286.09;;;21.38;72.29
81151;BME280;70629;-26.026;27.976;2024-01-15T02:09:35;86288.97;;;21.58;71.65
81151;BME280;70629;-26.026;27.976;2024-01-15T02:10:16;86291.84;;;21.74;70.93
81151;BME280;70629;-26.026;27.976;2024-01-15T02:10:55;86286.41;;;21.82;70.79
81151;BME280;70629;-26.026;27.976;2024-01-15T02:11:36;86287.78;;;21.81;70.30
81151;BME280;70629;-26.026;27.976;2024-01-15T02:12:16;86295.97;;;21.77;70.37
81151;BME280;70629;-26.026;27.976;2024-01-15T02:12:56;86297.97;;;21.71;70.86
81151;BME280;70629;-26.026;27.976;2024-01-15T02:13:36;86292.41;;;21.59;70.85
81151;BME280;70629;-26.026;27.976;2024-01-15T02:14:18;86294.44;;;21.58;71.16
81151;BME280;70629;-26.026;27.976;2024-01-15T02:14:58;86298.53;;;21.53;71.18
81151;BME280;70629;-26.026;27.976;2024-01-15T02:15:38;86304.69;;;21.54;71.31
81151;BME280;70629;-26.026;27.976;2024-01-15T02:16:18;86305.31;;;21.48;71.16
81151;BME280;70629;-26.026;27.976;2024-01-15T02:16:58;86305.34;;;21.50;71.22
81151;BME280;70629;-26.026;27.976;2024-01-15T02:18:01;86314.13;;;21.38;71.91
81151;BME280;70629;-26.026;27.976;2024-01-15T02:18:42;86309.97;;;21.33;72.01
81151;BME280;70629;-26.026;27.976;2024-01-15T02:19:21;86313.38;;;21.30;72.20
81151;BME280;70629;-26.026;27.976;2024-01-15T02:20:01;86306.47;;;21.21;72.33
81151;BME280;70629;-26.026;27.976;2024-01-15T02:20:41;86320.31;;;21.43;71.79
81151;BME280;70629;-26.026;27.976;2024-01-15T02:21:23;86324.56;;;21.58;71.08
81151;BME280;70629;-26.026;27.976;2024-01-15T02:22:03;86312.72;;;21.33;71.68
81151;BME280;70629;-26.026;27.976;2024-01-15T02:22:43;86316.19;;;21.36;71.77
81151;BME280;70629;-26.026;27.976;2024-01-15T02:23:23;86321.63;;;21.32;72.01
81151;BME280;70629;-26.026;27.976;2024-01-15T02:24:03;86316.31;;;21.54;71.32
81151;BME280;70629;-26.026;27.976;2024-01-15T02:24:43;86315.06;;;21.69;70.87
81151;BME280;70629;-26.026;27.976;2024-01-15T02:25:23;86317.88;;;21.81;70.32
81151;BME280;70629;-26.026;27.976;2024-01-15T02:26:04;86317.84;;;21.73;71.10
81151;BME280;70629;-26.026;27.976;2024-01-15T02:26:44;86323.38;;;21.85;71.00
81151;BME280;70629;-26.026;27.976;2024-01-15T02:27:24;86319.28;;;21.82;70.95
81151;BME280;70629;-26.026;27.976;2024-01-15T02:28:04;86314.59;;;21.93;70.38
81151;BME280;70629;-26.026;27.976;2024-01-15T02:28:44;86318.59;;;21.86;70.39
81151;BME280;70629;-26.026;27.976;2024-01-15T02:29:24;86316.50;;;21.80;70.30
81151;BME280;70629;-26.026;27.976;2024-01-15T02:30:04;86319.28;;;21.82;69.88
81151;BME280;70629;-26.026;27.976;2024-01-15T02:30:45;86320.53;;;21.67;70.40
81151;BME280;70629;-26.026;27.976;2024-01-15T02:31:26;86321.03;;;21.48;70.82
81151;BME280;70629;-26.026;27.976;2024-01-15T02:32:06;86318.28;;;21.41;71.51
81151;BME280;70629;-26.026;27.976;2024-01-15T02:32:46;86324.44;;;21.42;71.51
81151;BME280;70629;-26.026;27.976;2024-01-15T02:33:26;86321.69;;;21.40;71.42
81151;BME280;70629;-26.026;27.976;2024-01-15T02:34:07;86326.44;;;21.35;71.37
81151;BME280;70629;-26.026;27.976;2024-01-15T02:34:47;86325.06;;;21.36;71.68
81151;BME280;70629;-26.026;27.976;2024-01-15T02:35:27;86323.00;;;21.33;71.43
81151;BME280;70629;-26.026;27.976;2024-01-15T02:36:07;86323.78;;;21.48;71.07
81151;BME280;70629;-26.026;27.976;2024-01-15T02:36:47;86332.78;;;21.60;70.76
81151;BME280;70629;-26.026;27.976;2024-01-15T02:37:27;86321.81;;;21.56;70.76
81151;BME280;70629;-26.026;27.976;2024-01-15T02:38:07;86323.25;;;21.65;70.39
81151;BME280;70629;-26.026;27.976;2024-01-15T02:38:47;86321.75;;;21.50;70.68
81151;BME280;70629;-26.026;27.976;2024-01-15T02:39:27;86326.53;;;21.48;71.14
81151;BME280;70629;-26.026;27.976;2024-01-15T02:40:08;86327.22;;;21.48;70.98
81151;BME280;70629;-26.026;27.976;2024-01-15T02:40:49;86329.94;;;21.46;70.72
81151;BME280;70629;-26.026;27.976;2024-01-15T02:41:30;86321.09;;;21.54;70.65
81151;BME280;70629;-26.026;27.976;2024-01-15T02:42:10;86324.53;;;21.54;70.46
81151;BME280;70629;-26.026;27.976;2024-01-15T02:42:50;86326.03;;;21.69;70.19
81151;BME280;70629;-26.026;27.976;2024-01-15T02:43:30;86326.72;;;21.70;70.41
81151;BME280;70629;-26.026;27.976;2024-01-15T02:44:09;86333.38;;;21.49;70.78
81151;BME280;70629;-26.026;27.976;2024-01-15T02:44:50;86338.91;;;21.57;70.73
81151;BME280;70629;-26.026;27.976;2024-01-15T02:45:29;86331.47;;;21.65;70.67
81151;BME280;70629;-26.026;27.976;2024-01-15T02:46:09;86333.53;;;21.69;70.50
81151;BME280;70629;-26.026;27.976;2024-01-15T02:46:49;86339.56;;;21.53;70.41
81151;BME280;70629;-26.026;27.976;2024-01-15T02:47:29;86336.13;;;21.53;70.69
81151;BME280;70629;-26.026;27.976;2024-01-15T02:48:09;86335.53;;;21.60;70.60
81151;BME280;70629;-26.026;27.976;2024-01-15T02:48:49;86338.03;;;21.32;71.04
81151;BME280;70629;-26.026;27.976;2024-01-15T02:49:29;86333.34;;;21.44;70.57
81151;BME280;70629;-26.026;27.976;2024-01-15T02:50:10;86332.53;;;21.30;71.19
81151;BME280;70629;-26.026;27.976;2024-01-15T02:50:50;86331.91;;;21.35;71.11
81151;BME280;70629;-26.026;27.976;2024-01-15T02:51:30;86332.44;;;21.20;71.82
81151;BME280;70629;-26.026;27.976;2024-01-15T02:52:11;86327.53;;;21.10;72.11
81151;BME280;70629;-26.026;27.976;2024-01-15T02:52:52;86327.53;;;21.08;71.65
81151;BME280;70629;-26.026;27.976;2024-01-15T02:53:31;86321.38;;;21.08;72.03
81151;BME280;70629;-26.026;27.976;2024-01-15T02:54:11;86329.56;;;21.10;72.22
81151;BME280;70629;-26.026;27.976;2024-01-15T02:54:51;86330.91;;;21.05;72.13
81151;BME280;70629;-26.026;27.976;2024-01-15T02:55:31;86331.53;;;21.01;72.06
81151;BME280;70629;-26.026;27.976;2024-01-15T02:56:11;86334.84;;;20.89;72.54
81151;BME280;70629;-26.026;27.976;2024-01-15T02:56:51;86338.34;;;20.98;72.39
81151;BME280;70629;-26.026;27.976;2024-01-15T02:57:30;86342.03;;;21.21;71.53
81151;BME280;70629;-26.026;27.976;2024-01-15T02:58:11;86340.06;;;21.33;70.86
81151;BME280;70629;-26.026;27.976;2024-01-15T02:58:51;86337.28;;;21.23;70.97
81151;BME280;70629;-26.026;27.976;2024-01-15T03:00:44;86345.84;;;20.95;72.17
81151;BME280;70629;-26.026;27.976;2024-01-15T03:01:25;86340.41;;;20.97;72.17
81151;BME280;70629;-26.026;27.976;2024-01-15T03:02:05;86347.28;;;21.02;72.29
81151;BME280;70629;-26.026;27.976;2024-01-15T03:02:45;86339.84;;;21.09;71.80
81151;BME280;70629;-26.026;27.976;2024-01-15T03:03:26;86340.50;;;21.08;71.90
81151;BME280;70629;-26.026;27.976;2024-01-15T03:04:09;86340.72;;;21.28;71.23
81151;BME280;70629;-26.026;27.976;2024-01-15T03:04:49;86339.34;;;21.29;71.34
81151;BME280;70629;-26.026;27.976;2024-01-15T03:05:28;86348.97;;;21.32;70.82
81151;BME280;70629;-26.026;27.976;2024-01-15T03:06:10;86337.91;;;21.20;71.36
81151;BME280;70629;-26.026;27.976;2024-01-15T03:06:50;86340.41;;;20.97;72.31
81151;BME280;70629;-26.026;27.976;2024-01-15T03:07:30;86343.81;;;20.98;72.70
81151;BME280;70629;-26.026;27.976;2024-01-15T03:08:10;86343.25;;;21.10;72.25
81151;BME280;70629;-26.026;27.976;2024-01-15T03:08:50;86344.44;;;20.90;72.77
81151;BME280;70629;-26.026;27.976;2024-01-15T03:09:29;86339.22;;;21.15;72.16
81151;BME280;70629;-26.026;27.976;2024-01-15T03:10:09;86339.28;;;21.19;71.91
81151;BME280;70629;-26.026;27.976;2024-01-15T03:10:49;86342.66;;;21.15;71.84
81151;BME280;70629;-26.026;27.976;2024-01-15T03:11:30;86350.06;;;21.05;71.98
81151;BME280;70629;-26.026;27.976;2024-01-15T03:12:16;86345.13;;;20.93;72.26
81151;BME280;70629;-26.026;27.976;2024-01-15T03:12:56;86341.78;;;20.98;72.65
81151;BME280;70629;-26.026;27.976;2024-01-15T03:13:36;86340.31;;;20.89;72.50
81151;BME280;70629;-26.026;27.976;2024-01-15T03:14:16;86346.41;;;20.86;72.97
81151;BME280;70629;-26.026;27.976;2024-01-15T03:14:56;86348.41;;;20.79;73.18
81151;BME280;70629;-26.026;27.976;2024-01-15T03:15:36;86347.72;;;20.79;73.38
81151;BME280;70629;-26.026;27.976;2024-01-15T03:16:16;86349.22;;;20.92;72.61
81151;BME280;70629;-26.026;27.976;2024-01-15T03:16:56;86346.56;;;20.98;72.33
81151;BME280;70629;-26.026;27.976;2024-01-15T03:17:36;86353.47;;;21.05;71.97
81151;BME280;70629;-26.026;27.976;2024-01-15T03:18:15;86351.53;;;21.14;71.68
81151;BME280;70629;-26.026;27.976;2024-01-15T03:18:55;86344.03;;;21.16;71.11
81151;BME280;70629;-26.026;27.976;2024-01-15T03:19:35;86347.38;;;21.11;71.56
81151;BME280;70629;-26.026;27.976;2024-01-15T03:20:15;86353.47;;;21.05;72.02
81151;BME280;70629;-26.026;27.976;2024-01-15T03:20:55;86353.59;;;21.15;71.69
81151;BME280;70629;-26.026;27.976;2024-01-15T03:21:35;86357.00;;;21.14;71.56
81151;BME280;70629;-26.026;27.976;2024-01-15T03:22:16;86348.72;;;21.08;71.94
81151;BME280;70629;-26.026;27.976;2024-01-15T03:22:56;86348.88;;;21.22;71.12
81151;BME280;70629;-26.026;27.976;2024-01-15T03:23:35;86353.09;;;21.35;70.62
81151;BME280;70629;-26.026;27.976;2024-01-15T03:24:15;86362.63;;;21.30;70.71
81151;BME280;70629;-26.026;27.976;2024-01-15T03:24:55;86352.41;;;21.34;70.83
81151;BME280;70629;-26.026;27.976;2024-01-15T03:25:35;86349.69;;;21.38;70.48
81151;BME280;70629;-26.026;27.976;2024-01-15T03:26:15;86355.97;;;21.49;69.94
81151;BME280;70629;-26.026;27.976;2024-01-15T03:26:55;86349.19;;;21.56;70.11
81151;BME280;70629;-26.026;27.976;2024-01-15T03:27:35;86350.41;;;21.41;70.77
81151;BME280;70629;-26.026;27.976;2024-01-15T03:28:14;86355.31;;;21.53;70.52
81151;BME280;70629;-26.026;27.976;2024-01-15T03:28:55;86356.53;;;21.35;70.36
81151;BME280;70629;-26.026;27.976;2024-01-15T03:29:34;86359.16;;;21.25;70.84